sensor_id;sensor_type;location;lat;lon;timestamp;pressure;altitude;pressure_sealevel;temperature;humidity
49297;BME280;35163;48.878;18.040;2023-02-28T00:01:17;99406.88;;;-0.94;61.51
49297;BME280;35163;48.878;18.040;2023-02-28T00:03:44;99407.66;;;-0.96;61.70
49297;BME280;35163;48.878;18.040;2023-02-28T00:06:10;99394.03;;;-0.99;60.92
49297;BME280;35163;48.878;18.040;2023-02-28T00:08:38;99397.25;;;-1.04;61.68
49297;BME280;35163;48.878;18.040;2023-02-28T00:11:07;99403.41;;;-0.96;61.41
49297;BME280;35163;48.878;18.040;2023-02-28T00:13:35;99406.13;;;-0.91;61.55
49297;BME280;35163;48.878;18.040;2023-02-28T00:16:09;99413.91;;;-0.85;60.64
49297;BME280;35163;48.878;18.040;2023-02-28T00:18:37;99399.31;;;-0.92;60.91
49297;BME280;35163;48.878;18.040;2023-02-28T00:21:05;99409.38;;;-0.95;61.89
49297;BME280;35163;48.878;18.040;2023-02-28T00:23:32;99402.75;;;-0.90;61.54
49297;BME280;35163;48.878;18.040;2023-02-28T00:25:58;99409.47;;;-0.92;61.72
49297;BME280;35163;48.878;18.040;2023-02-28T00:28:25;99412.72;;;-0.96;61.78
49297;BME280;35163;48.878;18.040;2023-02-28T00:30:52;99405.16;;;-0.95;61.63
49297;BME280;35163;48.878;18.040;2023-02-28T00:33:18;99400.03;;;-0.96;61.63
49297;BME280;35163;48.878;18.040;2023-02-28T00:35:45;99400.09;;;-0.95;62.14
49297;BME280;35163;48.878;18.040;2023-02-28T00:38:13;99404.28;;;-0.95;62.35
49297;BME280;35163;48.878;18.040;2023-02-28T00:40:40;99398.19;;;-1.01;62.27
49297;BME280;35163;48.878;18.040;2023-02-28T00:43:06;99396.63;;;-0.97;61.82
49297;BME280;35163;48.878;18.040;2023-02-28T00:45:33;99390.59;;;-1.01;61.94
49297;BME280;35163;48.878;18.040;2023-02-28T00:48:00;99402.56;;;-0.96;61.29
49297;BME280;35163;48.878;18.040;2023-02-28T00:50:27;99402.56;;;-0.96;62.15
49297;BME280;35163;48.878;18.040;2023-02-28T00:52:53;99405.03;;;-1.00;62.27
49297;BME280;35163;48.878;18.040;2023-02-28T00:55:20;99408.22;;;-1.05;62.01
49297;BME280;35163;48.878;18.040;2023-02-28T00:57:46;99406.38;;;-1.10;61.88
49297;BME280;35163;48.878;18.040;2023-02-28T01:00:13;99394.66;;;-1.06;61.84
49297;BME280;35163;48.878;18.040;2023-02-28T01:02:40;99398.81;;;-1.08;62.58
49297;BME280;35163;48.878;18.040;2023-02-28T01:05:07;99399.66;;;-1.09;62.02
49297;BME280;35163;48.878;18.040;2023-02-28T01:07:36;99400.25;;;-1.16;62.19
49297;BME280;35163;48.878;18.040;2023-02-28T01:10:03;99406.13;;;-1.19;62.36
49297;BME280;35163;48.878;18.040;2023-02-28T01:12:30;99405.25;;;-1.19;62.28
49297;BME280;35163;48.878;18.040;2023-02-28T01:14:57;99396.63;;;-1.25;61.59
49297;BME280;35163;48.878;18.040;2023-02-28T01:17:23;99403.47;;;-1.22;62.37
49297;BME280;35163;48.878;18.040;2023-02-28T01:19:53;99398.44;;;-1.20;62.26
49297;BME280;35163;48.878;18.040;2023-02-28T01:22:20;99399.16;;;-1.25;61.75
49297;BME280;35163;48.878;18.040;2023-02-28T01:24:47;99405.81;;;-1.28;62.20
49297;BME280;35163;48.878;18.040;2023-02-28T01:27:14;99404.22;;;-1.25;61.69
49297;BME280;35163;48.878;18.040;2023-02-28T01:29:40;99397.41;;;-1.27;61.74
49297;BME280;35163;48.878;18.040;2023-02-28T01:32:08;99401.78;;;-1.22;61.91
49297;BME280;35163;48.878;18.040;2023-02-28T01:34:35;99394.81;;;-1.29;61.61
49297;BME280;35163;48.878;18.040;2023-02-28T01:37:01;99405.63;;;-1.35;62.05
49297;BME280;35163;48.878;18.040;2023-02-28T01:39:30;99395.31;;;-1.39;62.38
49297;BME280;35163;48.878;18.040;2023-02-28T01:41:56;99407.38;;;-1.32;62.41
49297;BME280;35163;48.878;18.040;2023-02-28T01:47:21;99390.53;;;-1.30;62.23
49297;BME280;35163;48.878;18.040;2023-02-28T01:49:49;99400.53;;;-1.35;62.31
49297;BME280;35163;48.878;18.040;2023-02-28T01:52:18;99398.13;;;-1.30;62.09
49297;BME280;35163;48.878;18.040;2023-02-28T01:54:52;99399.66;;;-1.35;62.34
49297;BME280;35163;48.878;18.040;2023-02-28T01:57:25;99401.41;;;-1.34;63.24
49297;BME280;35163;48.878;18.040;2023-02-28T01:59:59;99394.69;;;-1.32;63.21
49297;BME280;35163;48.878;18.040;2023-02-28T02:02:30;99402.97;;;-1.38;62.94
49297;BME280;35163;48.878;18.040;2023-02-28T02:05:02;99403.78;;;-1.39;62.71
49297;BME280;35163;48.878;18.040;2023-02-28T02:07:32;99396.13;;;-1.40;63.60
49297;BME280;35163;48.878;18.040;2023-02-28T02:10:02;99403.78;;;-1.39;63.02
49297;BME280;35163;48.878;18.040;2023-02-28T02:15:25;99416.50;;;-1.37;62.77
49297;BME280;35163;48.878;18.040;2023-02-28T02:17:57;99415.75;;;-1.35;63.07
49297;BME280;35163;48.878;18.040;2023-02-28T02:31:56;99415.22;;;-1.26;62.51
49297;BME280;35163;48.878;18.040;2023-02-28T02:34:37;99405.16;;;-1.23;62.85
49297;BME280;35163;48.878;18.040;2023-02-28T02:37:43;99414.47;;;-1.22;62.23
49297;BME280;35163;48.878;18.040;2023-02-28T02:40:16;99422.09;;;-1.22;63.05
49297;BME280;35163;48.878;18.040;2023-02-28T02:42:56;99420.78;;;-1.10;62.99
49297;BME280;35163;48.878;18.040;2023-02-28T02:45:32;99424.41;;;-1.02;62.07
49297;BME280;35163;48.878;18.040;2023-02-28T02:48:06;99425.53;;;-0.93;62.20
49297;BME280;35163;48.878;18.040;2023-02-28T02:50:39;99430.03;;;-0.84;61.85
49297;BME280;35163;48.878;18.040;2023-02-28T02:53:08;99427.44;;;-0.86;61.96
49297;BME280;35163;48.878;18.040;2023-02-28T02:55:40;99429.34;;;-0.79;61.42
49297;BME280;35163;48.878;18.040;2023-02-28T02:58:12;99430.25;;;-0.77;61.86
49297;BME280;35163;48.878;18.040;2023-02-28T03:00:45;99432.78;;;-0.77;62.56
49297;BME280;35163;48.878;18.040;2023-02-28T03:03:15;99439.75;;;-0.71;63.84
49297;BME280;35163;48.878;18.040;2023-02-28T03:05:49;99429.53;;;-0.72;64.39
49297;BME280;35163;48.878;18.040;2023-02-28T03:08:17;99439.78;;;-0.69;64.94
49297;BME280;35163;48.878;18.040;2023-02-28T03:10:46;99435.63;;;-0.67;64.21
49297;BME280;35163;48.878;18.040;2023-02-28T03:21:26;99433.47;;;-0.53;63.63
49297;BME280;35163;48.878;18.040;2023-02-28T03:24:07;99428.47;;;-0.52;63.07
49297;BME280;35163;48.878;18.040;2023-02-28T03:26:40;99425.81;;;-0.55;63.69
49297;BME280;35163;48.878;18.040;2023-02-28T03:29:15;99431.94;;;-0.48;62.56
49297;BME280;35163;48.878;18.040;2023-02-28T03:31:54;99422.56;;;-0.51;63.51
49297;BME280;35163;48.878;18.040;2023-02-28T03:34:34;99427.59;;;-0.52;63.44
49297;BME280;35163;48.878;18.040;2023-02-28T03:37:11;99438.84;;;-0.44;64.42
49297;BME280;35163;48.878;18.040;2023-02-28T03:39:43;99439.75;;;-0.42;64.24
49297;BME280;35163;48.878;18.040;2023-02-28T03:42:20;99441.44;;;-0.42;64.23
49297;BME280;35163;48.878;18.040;2023-02-28T03:45:00;99434.72;;;-0.40;63.67
49297;BME280;35163;48.878;18.040;2023-02-28T03:47:35;99436.44;;;-0.39;63.89
49297;BME280;35163;48.878;18.040;2023-02-28T03:52:34;99431.28;;;-0.42;63.16
49297;BME280;35163;48.878;18.040;2023-02-28T03:55:09;99435.69;;;-0.37;62.91
49297;BME280;35163;48.878;18.040;2023-02-28T03:57:55;99439.97;;;-0.34;62.52
49297;BME280;35163;48.878;18.040;2023-02-28T04:00:30;99444.38;;;-0.28;62.33
49297;BME280;35163;48.878;18.040;2023-02-28T04:02:59;99435.84;;;-0.30;60.93
49297;BME280;35163;48.878;18.040;2023-02-28T04:05:26;99439.38;;;-0.25;59.70
49297;BME280;35163;48.878;18.040;2023-02-28T04:07:54;99437.09;;;-0.17;59.33
49297;BME280;35163;48.878;18.040;2023-02-28T04:10:29;99433.44;;;-0.26;58.97
49297;BME280;35163;48.878;18.040;2023-02-28T04:12:55;99430.94;;;-0.24;58.53
49297;BME280;35163;48.878;18.040;2023-02-28T04:15:22;99431.81;;;-0.23;58.88
49297;BME280;35163;48.878;18.040;2023-02-28T04:17:50;99431.44;;;-0.36;58.45
49297;BME280;35163;48.878;18.040;2023-02-28T04:20:17;99433.09;;;-0.38;59.38
49297;BME280;35163;48.878;18.040;2023-02-28T04:22:43;99434.91;;;-0.34;61.70
49297;BME280;35163;48.878;18.040;2023-02-28T04:25:10;99441.94;;;-0.25;61.14
49297;BME280;35163;48.878;18.040;2023-02-28T04:27:37;99446.28;;;-0.21;60.17
49297;BME280;35163;48.878;18.040;2023-02-28T04:30:03;99447.88;;;-0.25;59.38
49297;BME280;35163;48.878;18.040;2023-02-28T04:32:31;99450.44;;;-0.25;58.43
49297;BME280;35163;48.878;18.040;2023-02-28T04:35:00;99455.69;;;-0.18;58.96
49297;BME280;35163;48.878;18.040;2023-02-28T04:37:26;99446.16;;;-0.26;59.84
49297;BME280;35163;48.878;18.040;2023-02-28T04:39:56;99453.69;;;-0.29;60.03
49297;BME280;35163;48.878;18.040;2023-02-28T04:42:25;99462.31;;;-0.23;59.07
49297;BME280;35163;48.878;18.040;2023-02-28T04:44:52;99452.94;;;-0.26;59.31
49297;BME280;35163;48.878;18.040;2023-02-28T04:47:18;99461.31;;;-0.29;61.26
49297;BME280;35163;48.878;18.040;2023-02-28T04:49:45;99459.47;;;-0.34;62.01
49297;BME280;35163;48.878;18.040;2023-02-28T04:52:12;99459.41;;;-0.36;61.64
49297;BME280;35163;48.878;18.040;2023-02-28T04:54:39;99462.06;;;-0.33;61.22
49297;BME280;35163;48.878;18.040;2023-02-28T04:57:06;99457.72;;;-0.35;60.72
49297;BME280;35163;48.878;18.040;2023-02-28T04:59:32;99458.47;;;-0.40;60.43
49297;BME280;35163;48.878;18.040;2023-02-28T05:01:59;99461.78;;;-0.42;60.08
49297;BME280;35163;48.878;18.040;2023-02-28T05:04:26;99455.94;;;-0.40;59.73
49297;BME280;35163;48.878;18.040;2023-02-28T05:06:52;99461.59;;;-0.48;59.42
49297;BME280;35163;48.878;18.040;2023-02-28T05:09:19;99452.28;;;-0.48;60.36
49297;BME280;35163;48.878;18.040;2023-02-28T05:11:45;99450.50;;;-0.51;59.99
49297;BME280;35163;48.878;18.040;2023-02-28T05:14:13;99458.88;;;-0.53;59.85
49297;BME280;35163;48.878;18.040;2023-02-28T05:16:41;99459.06;;;-0.48;59.59
49297;BME280;35163;48.878;18.040;2023-02-28T05:19:08;99457.06;;;-0.59;59.25
49297;BME280;35163;48.878;18.040;2023-02-28T05:21:37;99463.63;;;-0.66;59.65
49297;BME280;35163;48.878;18.040;2023-02-28T05:24:11;99462.84;;;-0.63;59.94
49297;BME280;35163;48.878;18.040;2023-02-28T05:26:41;99470.41;;;-0.65;59.70
49297;BME280;35163;48.878;18.040;2023-02-28T05:29:08;99473.78;;;-0.66;60.03
49297;BME280;35163;48.878;18.040;2023-02-28T05:31:35;99474.44;;;-0.71;60.13
49297;BME280;35163;48.878;18.040;2023-02-28T05:34:02;99465.59;;;-0.84;60.53
49297;BME280;35163;48.878;18.040;2023-02-28T05:36:31;99464.66;;;-0.87;61.14
49297;BME280;35163;48.878;18.040;2023-02-28T05:38:57;99470.34;;;-0.94;60.75
49297;BME280;35163;48.878;18.040;2023-02-28T05:41:24;99477.00;;;-0.98;61.52
49297;BME280;35163;48.878;18.040;2023-02-28T05:43:52;99474.19;;;-1.07;61.30
49297;BME280;35163;48.878;18.040;2023-02-28T05:46:19;99485.50;;;-0.97;61.50
49297;BME280;35163;48.878;18.040;2023-02-28T05:48:47;99480.56;;;-0.92;60.37
49297;BME280;35163;48.878;18.040;2023-02-28T05:51:14;99485.97;;;-1.09;61.32
49297;BME280;35163;48.878;18.040;2023-02-28T05:53:41;99486.06;;;-1.06;61.15
49297;BME280;35163;48.878;18.040;2023-02-28T05:56:07;99487.03;;;-1.02;61.80
49297;BME280;35163;48.878;18.040;2023-02-28T05:58:34;99495.47;;;-1.03;61.63
49297;BME280;35163;48.878;18.040;2023-02-28T06:01:20;99495.53;;;-1.02;61.77
49297;BME280;35163;48.878;18.040;2023-02-28T06:03:47;99494.69;;;-1.01;61.37
49297;BME280;35163;48.878;18.040;2023-02-28T06:06:13;99498.97;;;-1.00;62.12
49297;BME280;35163;48.878;18.040;2023-02-28T06:08:40;99497.88;;;-1.06;61.90
49297;BME280;35163;48.878;18.040;2023-02-28T06:11:06;99501.28;;;-1.06;62.08
49297;BME280;35163;48.878;18.040;2023-02-28T06:13:33;99499.53;;;-1.08;62.94
49297;BME280;35163;48.878;18.040;2023-02-28T06:16:01;99507.28;;;-1.04;62.03
49297;BME280;35163;48.878;18.040;2023-02-28T06:18:27;99511.72;;;-0.98;62.07
49297;BME280;35163;48.878;18.040;2023-02-28T06:20:54;99513.56;;;-0.92;62.81
49297;BME280;35163;48.878;18.040;2023-02-28T06:23:22;99520.53;;;-0.87;62.21
49297;BME280;35163;48.878;18.040;2023-02-28T06:25:48;99522.72;;;-0.71;63.16
49297;BME280;35163;48.878;18.040;2023-02-28T06:28:16;99527.28;;;-0.61;62.56
49297;BME280;35163;48.878;18.040;2023-02-28T06:30:42;99527.31;;;-0.59;63.11
49297;BME280;35163;48.878;18.040;2023-02-28T06:33:11;99524.31;;;-0.47;63.14
49297;BME280;35163;48.878;18.040;2023-02-28T06:35:38;99532.28;;;-0.37;63.26
49297;BME280;35163;48.878;18.040;2023-02-28T06:38:04;99530.72;;;-0.31;62.80
49297;BME280;35163;48.878;18.040;2023-02-28T06:40:31;99527.94;;;-0.39;61.85
49297;BME280;35163;48.878;18.040;2023-02-28T06:43:02;99525.44;;;-0.38;60.27
49297;BME280;35163;48.878;18.040;2023-02-28T06:45:29;99532.06;;;-0.43;61.00
49297;BME280;35163;48.878;18.040;2023-02-28T06:47:56;99527.19;;;-0.37;60.41
49297;BME280;35163;48.878;18.040;2023-02-28T06:50:22;99531.66;;;-0.29;61.59
49297;BME280;35163;48.878;18.040;2023-02-28T06:52:49;99530.03;;;-0.26;61.49
49297;BME280;35163;48.878;18.040;2023-02-28T06:55:20;99535.06;;;-0.27;62.22
49297;BME280;35163;48.878;18.040;2023-02-28T06:57:49;99528.19;;;-0.31;62.58
49297;BME280;35163;48.878;18.040;2023-02-28T07:00:17;99538.28;;;-0.34;62.96
49297;BME280;35163;48.878;18.040;2023-02-28T07:02:43;99525.66;;;-0.31;62.80
49297;BME280;35163;48.878;18.040;2023-02-28T07:05:10;99530.72;;;-0.31;62.64
49297;BME280;35163;48.878;18.040;2023-02-28T07:07:37;99528.22;;;-0.30;63.12
49297;BME280;35163;48.878;18.040;2023-02-28T07:10:07;99522.16;;;-0.35;61.21
49297;BME280;35163;48.878;18.040;2023-02-28T07:12:33;99527.50;;;-0.26;60.74
49297;BME280;35163;48.878;18.040;2023-02-28T07:15:06;99525.91;;;-0.22;60.54
49297;BME280;35163;48.878;18.040;2023-02-28T07:17:33;99526.56;;;-0.29;60.55
49297;BME280;35163;48.878;18.040;2023-02-28T07:19:59;99535.81;;;-0.31;60.52
49297;BME280;35163;48.878;18.040;2023-02-28T07:22:26;99532.31;;;-0.35;61.09
49297;BME280;35163;48.878;18.040;2023-02-28T07:24:52;99532.34;;;-0.33;60.47
49297;BME280;35163;48.878;18.040;2023-02-28T07:27:19;99531.44;;;-0.35;59.76
49297;BME280;35163;48.878;18.040;2023-02-28T07:29:52;99535.53;;;-0.41;60.40
49297;BME280;35163;48.878;18.040;2023-02-28T07:32:19;99546.69;;;-0.35;60.16
49297;BME280;35163;48.878;18.040;2023-02-28T07:34:46;99547.44;;;-0.40;60.14
49297;BME280;35163;48.878;18.040;2023-02-28T07:37:12;99553.91;;;-0.48;60.79
49297;BME280;35163;48.878;18.040;2023-02-28T07:39:39;99556.41;;;-0.50;60.85
49297;BME280;35163;48.878;18.040;2023-02-28T07:42:08;99548.69;;;-0.53;60.68
49297;BME280;35163;48.878;18.040;2023-02-28T07:44:41;99559.78;;;-0.51;61.01
49297;BME280;35163;48.878;18.040;2023-02-28T07:47:09;99547.91;;;-0.52;60.65
49297;BME280;35163;48.878;18.040;2023-02-28T07:49:36;99546.72;;;-0.34;60.61
49297;BME280;35163;48.878;18.040;2023-02-28T07:52:07;99552.06;;;-0.26;59.65
49297;BME280;35163;48.878;18.040;2023-02-28T07:54:34;99550.41;;;-0.24;59.30
49297;BME280;35163;48.878;18.040;2023-02-28T07:57:00;99559.78;;;-0.23;59.00
49297;BME280;35163;48.878;18.040;2023-02-28T07:59:29;99552.22;;;-0.21;59.43
49297;BME280;35163;48.878;18.040;2023-02-28T08:01:58;99551.34;;;-0.22;58.95
49297;BME280;35163;48.878;18.040;2023-02-28T08:04:26;99557.38;;;-0.18;59.31
49297;BME280;35163;48.878;18.040;2023-02-28T08:06:52;99559.41;;;-0.35;59.90
49297;BME280;35163;48.878;18.040;2023-02-28T08:09:19;99563.56;;;-0.38;58.97
49297;BME280;35163;48.878;18.040;2023-02-28T08:11:46;99564.97;;;-0.20;59.26
49297;BME280;35163;48.878;18.040;2023-02-28T08:14:13;99559.97;;;-0.17;58.74
49297;BME280;35163;48.878;18.040;2023-02-28T08:16:40;99562.75;;;-0.09;59.43
49297;BME280;35163;48.878;18.040;2023-02-28T08:19:06;99560.31;;;-0.06;57.81
49297;BME280;35163;48.878;18.040;2023-02-28T08:21:33;99563.03;;;0.01;57.62
49297;BME280;35163;48.878;18.040;2023-02-28T08:23:59;99560.19;;;0.19;58.44
49297;BME280;35163;48.878;18.040;2023-02-28T08:26:26;99567.88;;;0.22;57.19
49297;BME280;35163;48.878;18.040;2023-02-28T08:28:52;99564.34;;;0.17;57.68
49297;BME280;35163;48.878;18.040;2023-02-28T08:31:22;99564.47;;;0.21;58.13
49297;BME280;35163;48.878;18.040;2023-02-28T08:33:49;99568.97;;;0.30;58.08
49297;BME280;35163;48.878;18.040;2023-02-28T08:36:19;99570.13;;;0.42;57.19
49297;BME280;35163;48.878;18.040;2023-02-28T08:38:45;99570.53;;;0.56;57.22
49297;BME280;35163;48.878;18.040;2023-02-28T08:41:12;99572.50;;;0.66;55.80
49297;BME280;35163;48.878;18.040;2023-02-28T08:43:40;99573.78;;;0.82;56.34
49297;BME280;35163;48.878;18.040;2023-02-28T08:46:07;99565.75;;;1.01;56.56
49297;BME280;35163;48.878;18.040;2023-02-28T08:48:35;99573.72;;;1.13;55.72
49297;BME280;35163;48.878;18.040;2023-02-28T08:51:06;99579.91;;;1.23;54.84
49297;BME280;35163;48.878;18.040;2023-02-28T08:53:35;99576.88;;;1.38;55.14
49297;BME280;35163;48.878;18.040;2023-02-28T08:56:11;99572.84;;;1.48;55.65
49297;BME280;35163;48.878;18.040;2023-02-28T08:58:39;99579.88;;;1.57;54.31
49297;BME280;35163;48.878;18.040;2023-02-28T09:01:12;99576.81;;;1.72;54.73
49297;BME280;35163;48.878;18.040;2023-02-28T09:03:40;99579.66;;;1.85;54.52
49297;BME280;35163;48.878;18.040;2023-02-28T09:06:09;99578.22;;;1.98;54.10
49297;BME280;35163;48.878;18.040;2023-02-28T09:08:36;99576.81;;;2.11;53.57
49297;BME280;35163;48.878;18.040;2023-02-28T09:11:03;99575.34;;;2.22;52.84
49297;BME280;35163;48.878;18.040;2023-02-28T09:13:30;99574.72;;;2.33;52.03
49297;BME280;35163;48.878;18.040;2023-02-28T09:15:59;99577.38;;;2.39;50.69
49297;BME280;35163;48.878;18.040;2023-02-28T09:18:27;99574.94;;;2.43;49.66
49297;BME280;35163;48.878;18.040;2023-02-28T09:20:53;99569.94;;;2.48;48.99
49297;BME280;35163;48.878;18.040;2023-02-28T09:23:20;99579.53;;;2.60;49.00
49297;BME280;35163;48.878;18.040;2023-02-28T09:25:52;99572.94;;;2.72;49.13
49297;BME280;35163;48.878;18.040;2023-02-28T09:28:20;99579.75;;;2.71;47.05
49297;BME280;35163;48.878;18.040;2023-02-28T09:30:49;99575.66;;;2.81;47.47
49297;BME280;35163;48.878;18.040;2023-02-28T09:33:17;99580.16;;;2.93;47.25
49297;BME280;35163;48.878;18.040;2023-02-28T09:35:50;99570.09;;;3.04;46.85
49297;BME280;35163;48.878;18.040;2023-02-28T09:38:17;99573.50;;;3.03;47.05
49297;BME280;35163;48.878;18.040;2023-02-28T09:40:50;99572.81;;;3.13;46.75
49297;BME280;35163;48.878;18.040;2023-02-28T09:43:20;99568.78;;;3.26;47.12
49297;BME280;35163;48.878;18.040;2023-02-28T09:46:08;99568.78;;;3.28;46.86
49297;BME280;35163;48.878;18.040;2023-02-28T09:48:44;99568.69;;;3.20;46.09
49297;BME280;35163;48.878;18.040;2023-02-28T09:53:56;99566.16;;;3.22;45.19
49297;BME280;35163;48.878;18.040;2023-02-28T09:56:32;99567.19;;;3.33;45.01
49297;BME280;35163;48.878;18.040;2023-02-28T10:01:57;99565.56;;;3.38;44.46
49297;BME280;35163;48.878;18.040;2023-02-28T10:10:29;99563.47;;;3.68;43.49
49297;BME280;35163;48.878;18.040;2023-02-28T10:13:02;99567.09;;;3.83;44.39
49297;BME280;35163;48.878;18.040;2023-02-28T10:15:32;99568.88;;;3.88;43.42
49297;BME280;35163;48.878;18.040;2023-02-28T10:18:04;99574.16;;;3.99;43.16
49297;BME280;35163;48.878;18.040;2023-02-28T10:20:53;99570.00;;;4.08;43.60
49297;BME280;35163;48.878;18.040;2023-02-28T10:23:32;99573.53;;;4.18;43.12
49297;BME280;35163;48.878;18.040;2023-02-28T10:26:11;99562.56;;;4.28;43.14
49297;BME280;35163;48.878;18.040;2023-02-28T10:28:39;99568.59;;;4.33;42.54
49297;BME280;35163;48.878;18.040;2023-02-28T10:31:11;99566.16;;;4.41;42.00
49297;BME280;35163;48.878;18.040;2023-02-28T10:33:40;99567.88;;;4.44;42.22
49297;BME280;35163;48.878;18.040;2023-02-28T10:36:13;99557.78;;;4.56;42.37
49297;BME280;35163;48.878;18.040;2023-02-28T10:38:40;99567.19;;;4.57;42.14
49297;BME280;35163;48.878;18.040;2023-02-28T10:41:15;99559.53;;;4.60;42.03
49297;BME280;35163;48.878;18.040;2023-02-28T10:43:44;99554.38;;;4.56;41.89
49297;BME280;35163;48.878;18.040;2023-02-28T10:46:21;99555.34;;;4.69;42.01
49297;BME280;35163;48.878;18.040;2023-02-28T10:49:04;99551.19;;;4.79;41.38
49297;BME280;35163;48.878;18.040;2023-02-28T10:51:39;99553.81;;;4.86;41.33
49297;BME280;35163;48.878;18.040;2023-02-28T10:54:16;99546.13;;;4.86;41.82
49297;BME280;35163;48.878;18.040;2023-02-28T10:56:44;99543.56;;;4.86;41.51
49297;BME280;35163;48.878;18.040;2023-02-28T10:59:28;99536.75;;;4.87;41.22
49297;BME280;35163;48.878;18.040;2023-02-28T11:01:55;99538.50;;;4.93;41.74
49297;BME280;35163;48.878;18.040;2023-02-28T11:07:00;99535.16;;;5.00;41.58
49297;BME280;35163;48.878;18.040;2023-02-28T11:09:29;99528.44;;;5.12;41.28
49297;BME280;35163;48.878;18.040;2023-02-28T11:11:57;99530.09;;;5.06;41.22
49297;BME280;35163;48.878;18.040;2023-02-28T11:14:28;99532.72;;;5.13;41.62
49297;BME280;35163;48.878;18.040;2023-02-28T11:19:47;99515.66;;;5.16;41.24
49297;BME280;35163;48.878;18.040;2023-02-28T11:22:22;99521.72;;;5.29;41.25
49297;BME280;35163;48.878;18.040;2023-02-28T11:24:52;99508.03;;;5.27;40.78
49297;BME280;35163;48.878;18.040;2023-02-28T11:29:57;99510.66;;;5.37;39.76
49297;BME280;35163;48.878;18.040;2023-02-28T11:32:26;99509.00;;;5.40;38.67
49297;BME280;35163;48.878;18.040;2023-02-28T11:35:02;99505.63;;;5.47;38.73
49297;BME280;35163;48.878;18.040;2023-02-28T11:37:31;99507.31;;;5.42;38.29
49297;BME280;35163;48.878;18.040;2023-02-28T11:39:59;99491.09;;;5.51;39.00
49297;BME280;35163;48.878;18.040;2023-02-28T11:42:43;99492.03;;;5.61;38.70
49297;BME280;35163;48.878;18.040;2023-02-28T11:55:52;99467.31;;;5.80;38.55
49297;BME280;35163;48.878;18.040;2023-02-28T12:01:28;99468.19;;;5.84;38.61
49297;BME280;35163;48.878;18.040;2023-02-28T12:04:25;99468.22;;;5.92;38.48
49297;BME280;35163;48.878;18.040;2023-02-28T12:07:15;99475.88;;;5.86;38.20
49297;BME280;35163;48.878;18.040;2023-02-28T12:09:54;99461.34;;;5.88;38.50
49297;BME280;35163;48.878;18.040;2023-02-28T12:12:29;99465.66;;;5.95;39.29
49297;BME280;35163;48.878;18.040;2023-02-28T12:22:49;99453.66;;;5.89;39.74
49297;BME280;35163;48.878;18.040;2023-02-28T12:27:53;99450.25;;;5.93;39.31
49297;BME280;35163;48.878;18.040;2023-02-28T12:32:55;99445.06;;;5.82;39.34
49297;BME280;35163;48.878;18.040;2023-02-28T12:35:27;99445.94;;;5.81;39.15
49297;BME280;35163;48.878;18.040;2023-02-28T12:38:02;99444.19;;;5.74;39.47
49297;BME280;35163;48.878;18.040;2023-02-28T12:40:55;99440.81;;;5.81;40.01
49297;BME280;35163;48.878;18.040;2023-02-28T12:43:28;99433.91;;;5.72;39.55
49297;BME280;35163;48.878;18.040;2023-02-28T12:46:18;99434.78;;;5.76;39.35
49297;BME280;35163;48.878;18.040;2023-02-28T12:48:49;99435.66;;;5.80;39.44
49297;BME280;35163;48.878;18.040;2023-02-28T12:51:19;99431.34;;;5.74;39.39
49297;BME280;35163;48.878;18.040;2023-02-28T12:54:12;99429.66;;;5.73;39.97
49297;BME280;35163;48.878;18.040;2023-02-28T12:56:43;99422.81;;;5.78;39.75
49297;BME280;35163;48.878;18.040;2023-02-28T13:02:18;99418.53;;;5.77;39.52
49297;BME280;35163;48.878;18.040;2023-02-28T13:05:17;99415.94;;;5.65;39.64
49297;BME280;35163;48.878;18.040;2023-02-28T13:07:58;99416.81;;;5.75;39.69
49297;BME280;35163;48.878;18.040;2023-02-28T13:10:42;99416.81;;;5.73;39.25
49297;BME280;35163;48.878;18.040;2023-02-28T13:13:18;99412.50;;;5.66;39.41
49297;BME280;35163;48.878;18.040;2023-02-28T13:16:12;99405.63;;;5.62;39.74
49297;BME280;35163;48.878;18.040;2023-02-28T13:18:45;99405.63;;;5.62;39.51
49297;BME280;35163;48.878;18.040;2023-02-28T13:21:29;99403.06;;;5.62;40.13
49297;BME280;35163;48.878;18.040;2023-02-28T13:23:59;99400.53;;;5.65;39.94
49297;BME280;35163;48.878;18.040;2023-02-28T13:32:19;99398.84;;;5.73;39.78
49297;BME280;35163;48.878;18.040;2023-02-28T13:39:58;99383.38;;;5.57;40.34
49297;BME280;35163;48.878;18.040;2023-02-28T13:47:34;99376.63;;;5.88;40.33
49297;BME280;35163;48.878;18.040;2023-02-28T13:55:37;99383.41;;;5.67;40.53
49297;BME280;35163;48.878;18.040;2023-02-28T14:09:02;99359.53;;;5.87;40.36
49297;BME280;35163;48.878;18.040;2023-02-28T14:11:36;99362.06;;;5.74;40.57
49297;BME280;35163;48.878;18.040;2023-02-28T14:14:05;99364.66;;;5.87;40.26
49297;BME280;35163;48.878;18.040;2023-02-28T14:16:47;99353.53;;;5.77;40.49
49297;BME280;35163;48.878;18.040;2023-02-28T14:19:30;99366.38;;;5.78;40.13
49297;BME280;35163;48.878;18.040;2023-02-28T14:27:32;99356.06;;;5.72;40.57
49297;BME280;35163;48.878;18.040;2023-02-28T14:38:19;99365.53;;;5.90;40.52
49297;BME280;35163;48.878;18.040;2023-02-28T14:40:49;99358.72;;;5.94;40.63
49297;BME280;35163;48.878;18.040;2023-02-28T14:43:25;99363.84;;;5.99;40.93
49297;BME280;35163;48.878;18.040;2023-02-28T14:46:00;99364.66;;;5.87;40.26
49297;BME280;35163;48.878;18.040;2023-02-28T14:48:28;99354.41;;;5.83;40.64
49297;BME280;35163;48.878;18.040;2023-02-28T14:50:59;99352.66;;;5.79;40.76
49297;BME280;35163;48.878;18.040;2023-02-28T14:53:35;99356.09;;;5.77;40.88
49297;BME280;35163;48.878;18.040;2023-02-28T14:56:03;99355.22;;;5.78;41.10
49297;BME280;35163;48.878;18.040;2023-02-28T14:58:33;99350.97;;;5.80;40.61
49297;BME280;35163;48.878;18.040;2023-02-28T15:01:02;99351.84;;;5.87;40.70
49297;BME280;35163;48.878;18.040;2023-02-28T15:03:32;99347.53;;;5.84;40.71
49297;BME280;35163;48.878;18.040;2023-02-28T15:06:16;99350.97;;;5.88;40.80
49297;BME280;35163;48.878;18.040;2023-02-28T15:08:44;99349.28;;;5.87;40.78
49297;BME280;35163;48.878;18.040;2023-02-28T15:11:18;99350.16;;;5.96;42.51
49297;BME280;35163;48.878;18.040;2023-02-28T15:13:50;99350.16;;;5.96;41.84
49297;BME280;35163;48.878;18.040;2023-02-28T15:16:21;99354.34;;;5.77;40.95